createdAt,value
2023-04-10T00:01:15.349Z,25.70
2023-04-10T00:03:43.000Z,25.50
2023-04-10T00:06:10.756Z,24.83
2023-04-10T00:08:38.181Z,25.38
2023-04-10T00:11:06.093Z,24.83
2023-04-10T00:13:33.530Z,24.50
2023-04-10T00:16:01.340Z,29.23
2023-04-10T00:18:28.920Z,27.85
2023-04-10T00:20:56.512Z,26.50
2023-04-10T00:23:24.481Z,28.23
2023-04-10T00:25:51.905Z,25.55
2023-04-10T00:28:19.446Z,26.08
2023-04-10T00:30:46.968Z,27.52
2023-04-10T00:33:14.638Z,26.38
2023-04-10T00:35:42.174Z,26.75
2023-04-10T00:38:09.669Z,28.95
2023-04-10T00:40:37.353Z,25.98
2023-04-10T00:43:05.154Z,27.83
2023-04-10T00:45:32.782Z,28.50
2023-04-10T00:48:00.593Z,27.00
2023-04-10T00:50:28.088Z,28.05
2023-04-10T00:52:57.399Z,27.55
2023-04-10T00:55:25.871Z,28.63
2023-04-10T00:57:56.691Z,26.90
2023-04-10T01:00:24.242Z,25.92
2023-04-10T01:02:52.280Z,24.13
2023-04-10T01:05:20.169Z,25.15
2023-04-10T01:08:12.497Z,25.35
2023-04-10T01:11:10.532Z,27.20
2023-04-10T01:14:07.729Z,25.38
2023-04-10T01:16:43.129Z,23.48
2023-04-10T01:19:47.526Z,25.90
2023-04-10T01:22:17.720Z,26.48
2023-04-10T01:25:02.353Z,23.02
2023-04-10T01:28:07.638Z,25.77
2023-04-10T01:30:37.311Z,25.10
2023-04-10T01:33:09.940Z,25.27
2023-04-10T01:35:38.981Z,29.30
2023-04-10T01:38:08.033Z,26.05
2023-04-10T01:40:39.756Z,28.27
2023-04-10T01:43:11.460Z,28.15
2023-04-10T01:45:48.464Z,31.58
2023-04-10T01:48:17.938Z,25.17
2023-04-10T01:50:47.942Z,25.45
2023-04-10T01:53:16.779Z,23.42
2023-04-10T01:55:44.873Z,25.48
2023-04-10T01:58:14.446Z,22.65
2023-04-10T02:00:43.670Z,24.23
2023-04-10T02:03:12.953Z,25.02
2023-04-10T02:05:55.493Z,22.98
2023-04-10T02:08:39.895Z,23.25
2023-04-10T02:11:22.227Z,23.90
2023-04-10T02:13:53.203Z,25.37
2023-04-10T02:16:23.177Z,24.65
2023-04-10T02:18:52.976Z,25.02
2023-04-10T02:21:20.824Z,25.85
2023-04-10T02:23:48.503Z,22.05
2023-04-10T02:26:16.366Z,24.25
2023-04-10T02:28:43.833Z,25.60
2023-04-10T02:31:11.366Z,24.38
2023-04-10T02:33:38.951Z,27.02
2023-04-10T02:36:07.008Z,27.80
2023-04-10T02:38:34.472Z,27.92
2023-04-10T02:41:02.074Z,28.90
2023-04-10T02:43:29.875Z,28.80
2023-04-10T02:45:57.654Z,26.73
2023-04-10T02:48:27.708Z,29.10
2023-04-10T02:50:59.992Z,28.60
2023-04-10T02:53:29.223Z,28.40
2023-04-10T02:56:00.653Z,27.75
2023-04-10T02:58:30.720Z,28.95
2023-04-10T03:00:59.234Z,30.80
2023-04-10T03:03:39.758Z,32.90
2023-04-10T03:06:09.182Z,28.58
2023-04-10T03:08:37.664Z,27.13
2023-04-10T03:11:07.687Z,25.83
2023-04-10T03:13:35.198Z,23.95
2023-04-10T03:16:02.776Z,24.00
2023-04-10T03:18:32.035Z,26.70
2023-04-10T03:20:59.672Z,28.30
2023-04-10T03:23:27.206Z,27.95
2023-04-10T03:25:55.119Z,27.02
2023-04-10T03:28:27.930Z,28.17
2023-04-10T03:30:56.537Z,29.20
2023-04-10T03:33:24.020Z,24.55
2023-04-10T03:35:51.578Z,25.95
2023-04-10T03:38:19.226Z,28.17
2023-04-10T03:40:46.755Z,26.42
2023-04-10T03:43:14.815Z,23.88
2023-04-10T03:45:42.703Z,29.02
2023-04-10T03:48:10.282Z,31.95
2023-04-10T03:50:42.369Z,30.67
2023-04-10T03:53:10.165Z,31.48
2023-04-10T03:55:38.847Z,33.63
2023-04-10T03:58:06.352Z,31.20
2023-04-10T04:00:34.352Z,30.75
2023-04-10T04:03:28.414Z,27.45
2023-04-10T04:05:56.404Z,28.30
2023-04-10T04:08:36.416Z,28.35
2023-04-10T04:11:09.741Z,25.00
2023-04-10T04:13:59.301Z,27.80
2023-04-10T04:16:52.837Z,26.60
2023-04-10T04:19:43.300Z,30.15
2023-04-10T04:22:29.652Z,29.92
2023-04-10T04:25:13.479Z,29.75
2023-04-10T04:28:01.945Z,27.10
2023-04-10T04:30:41.486Z,31.27
2023-04-10T04:33:32.038Z,30.45
2023-04-10T04:36:22.385Z,27.23
2023-04-10T04:39:12.936Z,26.85
2023-04-10T04:41:52.286Z,24.63
2023-04-10T04:44:35.763Z,26.83
2023-04-10T04:47:29.431Z,28.30
2023-04-10T04:50:17.277Z,25.52
2023-04-10T04:53:14.008Z,25.42
2023-04-10T04:56:08.511Z,25.83
2023-04-10T04:58:44.856Z,29.13
2023-04-10T05:01:28.679Z,471.23
2023-04-10T05:04:14.992Z,296.25
2023-04-10T05:07:01.148Z,171.30
2023-04-10T05:09:39.192Z,100.32
2023-04-10T05:12:16.582Z,65.10
2023-04-10T05:14:51.623Z,51.10
2023-04-10T05:17:37.674Z,36.25
2023-04-10T05:20:21.833Z,30.40
2023-04-10T05:23:24.910Z,25.50
2023-04-10T05:26:15.722Z,25.55
2023-04-10T05:28:57.500Z,27.77
2023-04-10T05:31:37.443Z,25.77
2023-04-10T05:34:17.698Z,28.42
2023-04-10T05:37:03.792Z,25.85
2023-04-10T05:39:45.537Z,30.67
2023-04-10T05:42:35.528Z,27.23
2023-04-10T05:45:15.324Z,29.48
2023-04-10T05:48:21.752Z,27.38
2023-04-10T05:51:22.108Z,22.98
2023-04-10T05:54:24.805Z,23.42
2023-04-10T05:57:11.199Z,22.73
2023-04-10T05:59:47.861Z,22.40
2023-04-10T06:02:26.086Z,21.67
2023-04-10T06:04:54.228Z,23.23
2023-04-10T06:07:21.860Z,23.10
2023-04-10T06:09:49.371Z,23.15
2023-04-10T06:12:17.372Z,21.13
2023-04-10T06:14:44.942Z,23.38
2023-04-10T06:17:12.850Z,21.70
2023-04-10T06:19:40.572Z,23.92
2023-04-10T06:22:08.130Z,25.45
2023-04-10T06:24:35.795Z,24.65
2023-04-10T06:27:03.271Z,25.17
2023-04-10T06:29:31.016Z,23.42
2023-04-10T06:31:58.759Z,23.20
2023-04-10T06:34:28.479Z,24.42
2023-04-10T06:37:04.431Z,21.25
2023-04-10T06:39:32.800Z,24.05
2023-04-10T06:42:01.376Z,23.42
2023-04-10T06:44:40.845Z,23.77
2023-04-10T06:47:09.252Z,24.05
2023-04-10T06:49:36.805Z,23.95
2023-04-10T06:52:04.506Z,25.35
2023-04-10T06:54:31.947Z,28.33
2023-04-10T06:56:59.374Z,24.08
2023-04-10T06:59:26.855Z,28.10
2023-04-10T07:01:54.606Z,27.45
2023-04-10T07:04:22.134Z,26.08
2023-04-10T07:06:49.655Z,25.58
2023-04-10T07:09:17.345Z,26.85
2023-04-10T07:11:44.752Z,25.52
2023-04-10T07:14:12.270Z,26.83
2023-04-10T07:16:39.763Z,27.98
2023-04-10T07:19:07.331Z,27.75
2023-04-10T07:21:34.823Z,34.25
2023-04-10T07:24:02.563Z,27.33
2023-04-10T07:26:30.072Z,30.38
2023-04-10T07:28:57.566Z,30.92
2023-04-10T07:31:25.156Z,30.85
2023-04-10T07:33:52.835Z,31.33
2023-04-10T07:36:20.239Z,34.50
2023-04-10T07:38:47.755Z,29.38
2023-04-10T07:41:15.253Z,31.23
2023-04-10T07:43:42.731Z,32.13
2023-04-10T07:46:10.411Z,31.40
2023-04-10T07:48:37.956Z,31.92
2023-04-10T07:51:09.314Z,36.53
2023-04-10T07:53:37.522Z,32.42
2023-04-10T07:56:05.654Z,30.70
2023-04-10T07:58:33.568Z,35.45
2023-04-10T08:01:01.090Z,31.92
2023-04-10T08:03:28.810Z,31.90
2023-04-10T08:05:56.654Z,33.88
2023-04-10T08:08:24.226Z,31.42
2023-04-10T08:10:51.666Z,32.65
2023-04-10T08:13:19.145Z,29.50
2023-04-10T08:15:46.664Z,32.95
2023-04-10T08:18:14.151Z,31.95
2023-04-10T08:20:41.715Z,35.95
2023-04-10T08:25:39.863Z,32.22
2023-04-10T08:28:07.353Z,30.58
2023-04-10T08:30:34.865Z,31.25
2023-04-10T08:33:02.414Z,32.85
2023-04-10T08:35:30.010Z,32.25
2023-04-10T08:38:11.692Z,31.90
2023-04-10T08:40:39.733Z,30.90
2023-04-10T08:43:07.236Z,29.52
2023-04-10T08:45:34.705Z,32.72
2023-04-10T08:48:05.988Z,28.48
2023-04-10T08:50:36.274Z,28.73
2023-04-10T08:53:11.019Z,30.55
2023-04-10T08:55:40.381Z,28.63
2023-04-10T08:58:08.641Z,29.83
2023-04-10T09:00:38.796Z,30.85
2023-04-10T09:03:12.056Z,30.55
2023-04-10T09:05:39.810Z,30.52
2023-04-10T09:08:12.301Z,28.52
2023-04-10T09:10:39.892Z,29.55
2023-04-10T09:13:07.335Z,30.33
2023-04-10T09:16:00.839Z,25.45
2023-04-10T09:18:41.593Z,27.83
2023-04-10T09:21:11.448Z,29.52
2023-04-10T09:23:39.347Z,28.08
2023-04-10T09:26:24.566Z,26.80
2023-04-10T09:29:06.359Z,26.30
2023-04-10T09:31:39.317Z,26.70
2023-04-10T09:34:15.437Z,17.60
2023-04-10T09:36:44.943Z,18.10
2023-04-10T09:39:12.729Z,18.10
2023-04-10T09:41:55.734Z,14.75
2023-04-10T09:44:33.969Z,17.67
2023-04-10T09:47:24.263Z,16.08
2023-04-10T09:49:56.612Z,15.38
2023-04-10T09:52:29.599Z,15.23
2023-04-10T09:55:02.190Z,17.27
2023-04-10T09:57:32.403Z,13.68
2023-04-10T10:00:06.176Z,14.52
2023-04-10T10:02:37.639Z,17.30
2023-04-10T10:05:06.355Z,15.00
2023-04-10T10:07:34.757Z,14.35
2023-04-10T10:10:03.637Z,13.52
2023-04-10T10:12:40.488Z,15.65
2023-04-10T10:15:29.889Z,14.80
2023-04-10T10:18:25.101Z,15.02
2023-04-10T10:20:53.661Z,17.48
2023-04-10T10:23:22.598Z,19.42
2023-04-10T10:25:51.509Z,17.13
2023-04-10T10:28:20.136Z,16.58
2023-04-10T10:30:49.877Z,17.70
2023-04-10T10:33:18.041Z,16.88
2023-04-10T10:35:46.467Z,16.60
2023-04-10T10:38:14.487Z,18.80
2023-04-10T10:40:55.038Z,23.02
2023-04-10T10:43:36.490Z,22.63
2023-04-10T10:46:17.135Z,22.83
2023-04-10T10:48:58.202Z,24.50
2023-04-10T10:51:43.710Z,24.73
2023-04-10T10:54:42.483Z,23.00
2023-04-10T10:57:46.867Z,26.23
2023-04-10T11:00:15.858Z,21.45
2023-04-10T11:02:43.655Z,24.63
2023-04-10T11:05:31.637Z,23.20
2023-04-10T11:07:59.307Z,23.50
2023-04-10T11:11:07.197Z,24.83
2023-04-10T11:13:36.665Z,25.02
2023-04-10T11:16:06.744Z,18.63
2023-04-10T11:18:47.271Z,21.25
2023-04-10T11:21:23.912Z,21.80
2023-04-10T11:23:52.867Z,22.00
2023-04-10T11:26:35.516Z,25.45
2023-04-10T11:29:03.730Z,22.40
2023-04-10T11:31:31.788Z,23.27
2023-04-10T11:34:08.152Z,22.83
2023-04-10T11:36:38.909Z,22.42
2023-04-10T11:39:16.181Z,24.15
2023-04-10T11:41:45.964Z,17.75
2023-04-10T11:44:39.633Z,19.58
2023-04-10T11:47:07.964Z,22.25
2023-04-10T11:49:37.140Z,23.25
2023-04-10T11:52:04.723Z,20.85
2023-04-10T11:54:32.759Z,19.02
2023-04-10T11:57:05.820Z,21.33
2023-04-10T11:59:34.263Z,19.92
2023-04-10T12:02:07.882Z,17.92
2023-04-10T12:04:36.814Z,17.75
2023-04-10T12:07:04.624Z,16.45
2023-04-10T12:09:32.479Z,15.05
2023-04-10T12:12:04.855Z,17.05
2023-04-10T12:14:37.137Z,16.45
2023-04-10T12:17:06.733Z,14.85
2023-04-10T12:19:35.556Z,17.23
2023-04-10T12:22:03.281Z,17.50
2023-04-10T12:24:46.957Z,24.10
2023-04-10T12:27:21.897Z,20.02
2023-04-10T12:29:52.477Z,17.00
2023-04-10T12:32:20.777Z,15.13
2023-04-10T12:34:59.038Z,13.93
2023-04-10T12:37:54.644Z,12.45
2023-04-10T12:40:22.197Z,13.15
2023-04-10T12:42:49.660Z,14.48
2023-04-10T12:45:17.203Z,11.77
2023-04-10T12:47:54.400Z,11.68
2023-04-10T12:50:22.386Z,10.13
2023-04-10T12:53:04.978Z,15.23
2023-04-10T12:55:33.077Z,9.95
2023-04-10T12:58:22.603Z,10.60
2023-04-10T13:00:50.248Z,10.35
2023-04-10T13:03:17.896Z,10.75
2023-04-10T13:05:46.244Z,10.48
2023-04-10T13:08:14.360Z,11.30
2023-04-10T13:10:43.666Z,11.25
2023-04-10T13:13:13.958Z,11.15
2023-04-10T13:15:42.066Z,13.43
2023-04-10T13:18:12.755Z,11.77
2023-04-10T13:20:41.930Z,10.02
2023-04-10T13:23:09.579Z,10.43
2023-04-10T13:25:43.120Z,9.93
2023-04-10T13:28:11.637Z,10.77
2023-04-10T13:30:41.565Z,8.52
2023-04-10T13:33:09.739Z,10.23
2023-04-10T13:35:37.610Z,8.20
2023-04-10T13:38:05.252Z,8.75
2023-04-10T13:40:33.419Z,8.10
2023-04-10T13:43:00.997Z,9.10
2023-04-10T13:45:28.467Z,8.43
2023-04-10T13:47:56.054Z,9.13
2023-04-10T13:50:23.658Z,7.18
2023-04-10T13:52:52.333Z,7.70
2023-04-10T13:55:21.137Z,8.45
2023-04-10T13:57:48.597Z,7.00
2023-04-10T14:00:16.451Z,6.30
2023-04-10T14:02:44.232Z,6.97
2023-04-10T14:05:11.901Z,8.20
2023-04-10T14:07:39.498Z,6.57
2023-04-10T14:10:07.838Z,5.90
2023-04-10T14:12:37.068Z,7.00
2023-04-10T14:15:06.014Z,8.70
2023-04-10T14:17:34.213Z,7.25
2023-04-10T14:20:01.975Z,8.30
2023-04-10T14:22:31.781Z,8.02
2023-04-10T14:25:11.820Z,7.72
2023-04-10T14:27:40.334Z,8.00
2023-04-10T14:30:08.895Z,9.40
2023-04-10T14:32:36.552Z,9.13
2023-04-10T14:35:04.282Z,9.13
2023-04-10T14:37:32.621Z,8.48
2023-04-10T14:40:00.216Z,9.05
2023-04-10T14:42:27.829Z,9.07
2023-04-10T14:44:55.243Z,9.52
2023-04-10T14:47:22.883Z,9.40
2023-04-10T14:49:50.442Z,10.75
2023-04-10T14:52:18.690Z,11.15
2023-04-10T14:54:46.147Z,9.70
2023-04-10T14:57:15.734Z,11.30
2023-04-10T14:59:43.358Z,8.85
2023-04-10T15:02:11.024Z,10.25
2023-04-10T15:04:38.596Z,9.27
2023-04-10T15:07:06.050Z,9.35
2023-04-10T15:09:33.676Z,10.68
2023-04-10T15:12:01.946Z,11.13
2023-04-10T15:14:29.944Z,8.70
2023-04-10T15:16:57.569Z,8.90
2023-04-10T15:19:25.195Z,10.13
2023-04-10T15:21:53.906Z,10.43
2023-04-10T15:24:21.514Z,10.02
2023-04-10T15:26:49.041Z,8.75
2023-04-10T15:29:16.586Z,9.95
2023-04-10T15:31:44.024Z,10.38
2023-04-10T15:34:11.515Z,9.95
2023-04-10T15:36:39.132Z,10.20
2023-04-10T15:39:08.709Z,9.70
2023-04-10T15:41:36.221Z,11.95
2023-04-10T15:44:03.926Z,9.23
2023-04-10T15:46:32.992Z,9.90
2023-04-10T15:49:01.214Z,10.48
2023-04-10T15:51:28.766Z,9.10
2023-04-10T15:53:56.390Z,11.10
2023-04-10T15:56:24.032Z,11.55
2023-04-10T15:58:51.543Z,10.75
2023-04-10T16:01:19.062Z,10.75
2023-04-10T16:03:46.755Z,11.40
2023-04-10T16:06:14.370Z,10.75
2023-04-10T16:08:41.853Z,8.65
2023-04-10T16:11:09.353Z,9.07
2023-04-10T16:13:38.073Z,9.32
2023-04-10T16:16:09.281Z,9.23
2023-04-10T16:18:36.795Z,10.15
2023-04-10T16:21:08.529Z,10.55
2023-04-10T16:23:35.995Z,8.60
2023-04-10T16:26:03.457Z,8.98
2023-04-10T16:28:31.644Z,10.10
2023-04-10T16:30:59.144Z,8.75
2023-04-10T16:33:26.706Z,8.93
2023-04-10T16:35:54.178Z,10.02
2023-04-10T16:38:21.663Z,9.85
2023-04-10T16:40:49.102Z,7.63
2023-04-10T16:43:16.520Z,10.15
2023-04-10T16:45:43.931Z,10.05
2023-04-10T16:48:11.512Z,11.40
2023-04-10T16:50:38.972Z,9.43
2023-04-10T16:53:06.505Z,9.18
2023-04-10T16:55:33.932Z,10.80
2023-04-10T16:58:01.494Z,9.35
2023-04-10T17:00:29.187Z,9.30
2023-04-10T17:02:59.289Z,8.70
2023-04-10T17:05:33.324Z,8.43
2023-04-10T17:08:00.917Z,8.18
2023-04-10T17:10:28.423Z,7.90
2023-04-10T17:12:56.002Z,8.77
2023-04-10T17:15:23.631Z,8.68
2023-04-10T17:17:51.574Z,6.90
2023-04-10T17:20:19.091Z,8.60
2023-04-10T17:22:46.910Z,8.40
2023-04-10T17:25:14.400Z,8.80
2023-04-10T17:27:41.859Z,7.68
2023-04-10T17:30:13.230Z,8.10
2023-04-10T17:32:41.951Z,9.45
2023-04-10T17:35:09.589Z,8.45
2023-04-10T17:37:37.066Z,9.52
2023-04-10T17:40:04.838Z,9.30
2023-04-10T17:42:32.407Z,8.63
2023-04-10T17:44:59.847Z,7.25
2023-04-10T17:47:27.439Z,8.85
2023-04-10T17:49:56.034Z,9.73
2023-04-10T17:52:24.070Z,9.63
2023-04-10T17:54:51.542Z,11.00
2023-04-10T17:57:18.988Z,8.57
2023-04-10T17:59:46.449Z,8.30
2023-04-10T18:02:14.039Z,9.32
2023-04-10T18:04:41.477Z,10.20
2023-04-10T18:07:08.992Z,9.48
2023-04-10T18:09:37.736Z,9.40
2023-04-10T18:12:05.243Z,10.32
2023-04-10T18:14:32.714Z,9.93
2023-04-10T18:17:00.332Z,8.55
2023-04-10T18:19:29.879Z,9.25
2023-04-10T18:21:57.296Z,13.52
2023-04-10T18:24:24.702Z,11.63
2023-04-10T18:26:52.153Z,12.82
2023-04-10T18:29:19.962Z,11.05
2023-04-10T18:31:47.464Z,12.23
2023-04-10T18:34:14.861Z,12.93
2023-04-10T18:36:42.354Z,13.45
2023-04-10T18:39:09.795Z,14.93
2023-04-10T18:41:38.459Z,15.65
2023-04-10T18:44:06.256Z,14.35
2023-04-10T18:46:33.928Z,16.10
2023-04-10T18:49:03.111Z,13.95
2023-04-10T18:51:34.969Z,12.52
2023-04-10T18:54:03.828Z,16.85
2023-04-10T18:56:31.667Z,15.65
2023-04-10T18:58:59.305Z,15.23
2023-04-10T19:01:27.183Z,15.35
2023-04-10T19:03:55.183Z,16.42
2023-04-10T19:06:24.126Z,16.20
2023-04-10T19:08:51.905Z,18.05
2023-04-10T19:11:19.448Z,15.95
2023-04-10T19:13:47.013Z,15.65
2023-04-10T19:16:16.161Z,15.48
2023-04-10T19:18:43.673Z,16.13
2023-04-10T19:21:11.285Z,16.23
2023-04-10T19:23:39.103Z,16.45
2023-04-10T19:26:07.586Z,14.75
2023-04-10T19:28:35.196Z,13.95
2023-04-10T19:31:02.706Z,13.35
2023-04-10T19:33:30.440Z,12.73
2023-04-10T19:35:59.203Z,14.80
2023-04-10T19:38:27.576Z,14.15
2023-04-10T19:40:55.380Z,15.48
2023-04-10T19:43:22.889Z,13.77
2023-04-10T19:45:50.708Z,13.13
2023-04-10T19:48:18.255Z,14.65
2023-04-10T19:50:45.761Z,13.98
2023-04-10T19:53:15.759Z,18.10
2023-04-10T19:55:44.788Z,11.93
2023-04-10T19:58:29.923Z,13.15
2023-04-10T20:01:04.602Z,17.15
2023-04-10T20:03:33.182Z,11.88
2023-04-10T20:06:03.404Z,11.52
2023-04-10T20:08:30.917Z,11.68
2023-04-10T20:10:58.584Z,10.35
2023-04-10T20:13:26.051Z,11.00
2023-04-10T20:15:53.649Z,9.55
2023-04-10T20:18:21.231Z,11.35
2023-04-10T20:20:48.669Z,8.30
2023-04-10T20:23:16.221Z,9.60
2023-04-10T20:25:43.693Z,10.50
2023-04-10T20:28:11.327Z,8.75
2023-04-10T20:30:39.571Z,9.20
2023-04-10T20:33:07.073Z,9.40
2023-04-10T20:35:34.639Z,9.73
2023-04-10T20:38:02.178Z,9.20
2023-04-10T20:40:29.567Z,8.45
2023-04-10T20:42:57.056Z,8.52
2023-04-10T20:45:24.439Z,8.95
2023-04-10T20:47:52.065Z,7.45
2023-04-10T20:50:19.730Z,8.25
2023-04-10T20:52:47.243Z,11.40
2023-04-10T20:55:14.709Z,9.95
2023-04-10T20:57:42.155Z,10.15
2023-04-10T21:00:10.440Z,8.70
2023-04-10T21:02:38.162Z,9.43
2023-04-10T21:05:06.072Z,9.80
2023-04-10T21:07:33.566Z,9.45
2023-04-10T21:10:01.033Z,9.13
2023-04-10T21:12:28.541Z,8.63
2023-04-10T21:14:55.996Z,9.63
2023-04-10T21:17:23.742Z,10.75
2023-04-10T21:19:51.213Z,11.40
2023-04-10T21:22:18.721Z,10.48
2023-04-10T21:24:46.165Z,9.90
2023-04-10T21:27:14.101Z,11.10
2023-04-10T21:29:41.477Z,10.07
2023-04-10T21:32:09.023Z,10.25
2023-04-10T21:34:36.605Z,11.00
2023-04-10T21:37:04.100Z,11.85
2023-04-10T21:39:31.620Z,12.15
2023-04-10T21:41:59.093Z,12.35
2023-04-10T21:44:26.454Z,11.73
2023-04-10T21:46:53.942Z,11.68
2023-04-10T21:49:21.375Z,12.20
2023-04-10T21:51:48.893Z,11.98
2023-04-10T21:54:16.309Z,11.30
2023-04-10T21:56:43.906Z,11.98
2023-04-10T21:59:11.718Z,14.00
2023-04-10T22:01:41.696Z,11.43
2023-04-10T22:04:09.526Z,11.98
2023-04-10T22:06:37.006Z,13.25
2023-04-10T22:09:04.541Z,11.40
2023-04-10T22:11:33.449Z,11.57
2023-04-10T22:14:09.088Z,12.30
2023-04-10T22:16:43.888Z,11.68
2023-04-10T22:19:11.333Z,11.63
2023-04-10T22:21:38.847Z,12.75
2023-04-10T22:24:06.490Z,11.18
2023-04-10T22:26:35.182Z,11.45
2023-04-10T22:29:04.606Z,14.50
2023-04-10T22:31:32.161Z,13.75
2023-04-10T22:33:59.555Z,11.38
2023-04-10T22:36:34.303Z,10.82
2023-04-10T22:39:02.313Z,11.43
2023-04-10T22:41:30.750Z,11.52
2023-04-10T22:43:58.335Z,11.90
2023-04-10T22:46:26.172Z,10.57
2023-04-10T22:48:54.915Z,13.52
2023-04-10T22:51:22.625Z,11.10
2023-04-10T22:53:50.134Z,9.50
2023-04-10T22:56:19.420Z,10.57
2023-04-10T22:58:46.933Z,9.32
2023-04-10T23:01:14.543Z,10.27
2023-04-10T23:03:42.159Z,9.25
2023-04-10T23:06:09.723Z,9.80
2023-04-10T23:08:37.278Z,9.18
2023-04-10T23:11:04.863Z,10.98
2023-04-10T23:13:32.430Z,7.55
2023-04-10T23:15:59.928Z,9.05
2023-04-10T23:18:27.546Z,7.78
2023-04-10T23:20:55.109Z,8.48
2023-04-10T23:23:22.631Z,9.73
2023-04-10T23:25:58.027Z,8.70
2023-04-10T23:28:26.155Z,9.68
2023-04-10T23:30:53.657Z,9.45
2023-04-10T23:33:21.293Z,9.45
2023-04-10T23:35:48.712Z,8.52
2023-04-10T23:38:16.377Z,9.65
2023-04-10T23:40:43.815Z,8.75
2023-04-10T23:43:11.399Z,9.73
2023-04-10T23:45:38.889Z,9.63
2023-04-10T23:48:08.994Z,11.18
2023-04-10T23:50:36.594Z,10.27
2023-04-10T23:53:04.151Z,10.30
2023-04-10T23:55:31.642Z,8.73
2023-04-10T23:57:59.020Z,11.40
